sensor_id;sensor_type;location;lat;lon;timestamp;temperature;humidity
36002;DHT22;22070;50.922;5.430;2023-04-29T00:01:08;12.50;99.90
36002;DHT22;22070;50.922;5.430;2023-04-29T00:03:34;12.40;99.90
36002;DHT22;22070;50.922;5.430;2023-04-29T00:06:00;12.40;99.90
36002;DHT22;22070;50.922;5.430;2023-04-29T00:08:26;12.50;99.90
36002;DHT22;22070;50.922;5.430;2023-04-29T00:10:52;12.60;99.90
36002;DHT22;22070;50.922;5.430;2023-04-29T00:13:17;12.60;99.90
36002;DHT22;22070;50.922;5.430;2023-04-29T00:15:43;12.60;99.90
36002;DHT22;22070;50.922;5.430;2023-04-29T00:18:09;12.60;99.90
36002;DHT22;22070;50.922;5.430;2023-04-29T00:20:36;12.60;99.90
36002;DHT22;22070;50.922;5.430;2023-04-29T00:23:04;12.50;99.90
36002;DHT22;22070;50.922;5.430;2023-04-29T00:25:30;12.50;99.90
36002;DHT22;22070;50.922;5.430;2023-04-29T00:27:56;12.40;99.90
36002;DHT22;22070;50.922;5.430;2023-04-29T00:30:29;12.30;99.90
36002;DHT22;22070;50.922;5.430;2023-04-29T00:32:55;12.10;99.90
36002;DHT22;22070;50.922;5.430;2023-04-29T00:35:21;12.10;99.90
36002;DHT22;22070;50.922;5.430;2023-04-29T00:37:46;12.10;99.90
36002;DHT22;22070;50.922;5.430;2023-04-29T00:40:12;12.20;99.90
36002;DHT22;22070;50.922;5.430;2023-04-29T00:42:40;12.10;99.90
36002;DHT22;22070;50.922;5.430;2023-04-29T00:45:09;12.00;99.90
36002;DHT22;22070;50.922;5.430;2023-04-29T00:47:38;12.10;99.90
36002;DHT22;22070;50.922;5.430;2023-04-29T00:50:07;12.20;99.90
36002;DHT22;22070;50.922;5.430;2023-04-29T00:52:33;12.10;99.90
36002;DHT22;22070;50.922;5.430;2023-04-29T00:54:59;12.00;99.90
36002;DHT22;22070;50.922;5.430;2023-04-29T00:57:26;11.90;99.90
36002;DHT22;22070;50.922;5.430;2023-04-29T00:59:56;11.80;99.90
36002;DHT22;22070;50.922;5.430;2023-04-29T01:02:23;11.70;99.90
36002;DHT22;22070;50.922;5.430;2023-04-29T01:04:49;11.80;99.90
36002;DHT22;22070;50.922;5.430;2023-04-29T01:07:30;11.70;99.90
36002;DHT22;22070;50.922;5.430;2023-04-29T01:10:21;11.70;99.90
36002;DHT22;22070;50.922;5.430;2023-04-29T01:13:19;11.70;99.90
36002;DHT22;22070;50.922;5.430;2023-04-29T01:16:02;11.70;99.90
36002;DHT22;22070;50.922;5.430;2023-04-29T01:18:45;11.70;99.90
36002;DHT22;22070;50.922;5.430;2023-04-29T01:21:14;11.80;99.90
36002;DHT22;22070;50.922;5.430;2023-04-29T01:23:40;11.80;99.90
36002;DHT22;22070;50.922;5.430;2023-04-29T01:26:05;11.90;99.90
36002;DHT22;22070;50.922;5.430;2023-04-29T01:28:55;11.80;99.90
36002;DHT22;22070;50.922;5.430;2023-04-29T01:31:32;11.90;99.90
36002;DHT22;22070;50.922;5.430;2023-04-29T01:36:56;11.70;99.90
36002;DHT22;22070;50.922;5.430;2023-04-29T01:42:14;11.80;99.90
36002;DHT22;22070;50.922;5.430;2023-04-29T01:44:42;11.80;99.90
36002;DHT22;22070;50.922;5.430;2023-04-29T01:47:08;11.80;99.90
36002;DHT22;22070;50.922;5.430;2023-04-29T01:49:35;11.70;99.90
36002;DHT22;22070;50.922;5.430;2023-04-29T01:52:01;11.60;99.90
36002;DHT22;22070;50.922;5.430;2023-04-29T01:54:27;11.50;99.90
36002;DHT22;22070;50.922;5.430;2023-04-29T01:56:53;11.40;99.90
36002;DHT22;22070;50.922;5.430;2023-04-29T01:59:19;11.40;99.90
36002;DHT22;22070;50.922;5.430;2023-04-29T02:01:45;11.40;99.90
36002;DHT22;22070;50.922;5.430;2023-04-29T02:04:11;11.40;99.90
36002;DHT22;22070;50.922;5.430;2023-04-29T02:06:37;11.50;99.90
36002;DHT22;22070;50.922;5.430;2023-04-29T02:09:03;11.40;99.90
36002;DHT22;22070;50.922;5.430;2023-04-29T02:11:28;11.30;99.90
36002;DHT22;22070;50.922;5.430;2023-04-29T02:13:54;11.30;99.90
36002;DHT22;22070;50.922;5.430;2023-04-29T02:16:21;11.30;99.90
36002;DHT22;22070;50.922;5.430;2023-04-29T02:18:47;11.30;99.90
36002;DHT22;22070;50.922;5.430;2023-04-29T02:21:13;11.30;99.90
36002;DHT22;22070;50.922;5.430;2023-04-29T02:23:38;11.40;99.90
36002;DHT22;22070;50.922;5.430;2023-04-29T02:26:04;11.50;99.90
36002;DHT22;22070;50.922;5.430;2023-04-29T02:28:34;11.30;99.90
36002;DHT22;22070;50.922;5.430;2023-04-29T02:31:00;11.30;99.90
36002;DHT22;22070;50.922;5.430;2023-04-29T02:33:26;11.20;99.90
36002;DHT22;22070;50.922;5.430;2023-04-29T02:35:52;11.20;99.90
36002;DHT22;22070;50.922;5.430;2023-04-29T02:38:18;11.10;99.90
36002;DHT22;22070;50.922;5.430;2023-04-29T02:40:44;11.20;99.90
36002;DHT22;22070;50.922;5.430;2023-04-29T02:43:10;11.20;99.90
36002;DHT22;22070;50.922;5.430;2023-04-29T02:45:37;11.10;99.90
36002;DHT22;22070;50.922;5.430;2023-04-29T02:48:03;11.10;99.90
36002;DHT22;22070;50.922;5.430;2023-04-29T02:50:29;11.10;99.90
36002;DHT22;22070;50.922;5.430;2023-04-29T02:52:55;11.20;99.90
36002;DHT22;22070;50.922;5.430;2023-04-29T02:55:20;11.30;99.90
36002;DHT22;22070;50.922;5.430;2023-04-29T02:57:46;11.30;99.90
36002;DHT22;22070;50.922;5.430;2023-04-29T03:00:12;11.30;99.90
36002;DHT22;22070;50.922;5.430;2023-04-29T03:02:37;11.30;99.90
36002;DHT22;22070;50.922;5.430;2023-04-29T03:05:04;11.20;99.90
36002;DHT22;22070;50.922;5.430;2023-04-29T03:07:30;11.10;99.90
36002;DHT22;22070;50.922;5.430;2023-04-29T03:09:56;11.00;99.90
36002;DHT22;22070;50.922;5.430;2023-04-29T03:12:22;11.00;99.90
36002;DHT22;22070;50.922;5.430;2023-04-29T03:14:48;11.00;99.90
36002;DHT22;22070;50.922;5.430;2023-04-29T03:17:14;11.00;99.90
36002;DHT22;22070;50.922;5.430;2023-04-29T03:19:40;10.90;99.90
36002;DHT22;22070;50.922;5.430;2023-04-29T03:22:06;10.90;99.90
36002;DHT22;22070;50.922;5.430;2023-04-29T03:24:34;10.90;99.90
36002;DHT22;22070;50.922;5.430;2023-04-29T03:27:00;10.90;99.90
36002;DHT22;22070;50.922;5.430;2023-04-29T03:29:26;10.80;99.90
36002;DHT22;22070;50.922;5.430;2023-04-29T03:31:53;10.70;99.90
36002;DHT22;22070;50.922;5.430;2023-04-29T03:34:18;10.80;99.90
36002;DHT22;22070;50.922;5.430;2023-04-29T03:36:44;10.80;99.90
36002;DHT22;22070;50.922;5.430;2023-04-29T03:39:10;10.70;99.90
36002;DHT22;22070;50.922;5.430;2023-04-29T03:41:37;10.70;99.90
36002;DHT22;22070;50.922;5.430;2023-04-29T03:44:03;10.70;99.90
36002;DHT22;22070;50.922;5.430;2023-04-29T03:46:29;10.80;99.90
36002;DHT22;22070;50.922;5.430;2023-04-29T03:48:55;10.80;99.90
36002;DHT22;22070;50.922;5.430;2023-04-29T03:51:24;10.90;99.90
36002;DHT22;22070;50.922;5.430;2023-04-29T03:53:52;11.00;99.90
36002;DHT22;22070;50.922;5.430;2023-04-29T03:56:18;10.90;99.90
36002;DHT22;22070;50.922;5.430;2023-04-29T03:58:44;10.90;99.90
36002;DHT22;22070;50.922;5.430;2023-04-29T04:01:11;11.00;99.90
36002;DHT22;22070;50.922;5.430;2023-04-29T04:03:37;11.00;99.90
36002;DHT22;22070;50.922;5.430;2023-04-29T04:06:03;10.90;99.90
36002;DHT22;22070;50.922;5.430;2023-04-29T04:08:28;10.80;99.90
36002;DHT22;22070;50.922;5.430;2023-04-29T04:10:54;10.90;99.90
36002;DHT22;22070;50.922;5.430;2023-04-29T04:13:27;10.90;99.90
36002;DHT22;22070;50.922;5.430;2023-04-29T04:15:52;10.90;99.90
36002;DHT22;22070;50.922;5.430;2023-04-29T04:18:18;10.80;99.90
36002;DHT22;22070;50.922;5.430;2023-04-29T04:20:44;10.80;99.90
36002;DHT22;22070;50.922;5.430;2023-04-29T04:23:09;10.80;99.90
36002;DHT22;22070;50.922;5.430;2023-04-29T04:25:35;10.80;99.90
36002;DHT22;22070;50.922;5.430;2023-04-29T04:28:01;10.80;99.90
36002;DHT22;22070;50.922;5.430;2023-04-29T04:30:26;10.80;99.90
36002;DHT22;22070;50.922;5.430;2023-04-29T04:32:52;10.90;99.90
36002;DHT22;22070;50.922;5.430;2023-04-29T04:35:18;10.90;99.90
36002;DHT22;22070;50.922;5.430;2023-04-29T04:37:43;10.80;99.90
36002;DHT22;22070;50.922;5.430;2023-04-29T04:40:10;10.70;99.90
36002;DHT22;22070;50.922;5.430;2023-04-29T04:42:36;10.90;99.90
36002;DHT22;22070;50.922;5.430;2023-04-29T04:45:02;11.00;99.90
36002;DHT22;22070;50.922;5.430;2023-04-29T04:47:28;11.00;99.90
36002;DHT22;22070;50.922;5.430;2023-04-29T04:49:53;10.90;99.90
36002;DHT22;22070;50.922;5.430;2023-04-29T04:52:20;10.90;99.90
36002;DHT22;22070;50.922;5.430;2023-04-29T04:54:46;11.00;99.90
36002;DHT22;22070;50.922;5.430;2023-04-29T04:57:12;10.90;99.90
36002;DHT22;22070;50.922;5.430;2023-04-29T04:59:37;11.00;99.90
36002;DHT22;22070;50.922;5.430;2023-04-29T05:02:03;11.10;99.90
36002;DHT22;22070;50.922;5.430;2023-04-29T05:04:28;11.10;99.90
36002;DHT22;22070;50.922;5.430;2023-04-29T05:06:54;11.10;99.90
36002;DHT22;22070;50.922;5.430;2023-04-29T05:09:20;11.10;99.90
36002;DHT22;22070;50.922;5.430;2023-04-29T05:11:45;11.10;99.90
36002;DHT22;22070;50.922;5.430;2023-04-29T05:14:11;11.10;99.90
36002;DHT22;22070;50.922;5.430;2023-04-29T05:16:37;11.10;99.90
36002;DHT22;22070;50.922;5.430;2023-04-29T05:19:02;11.00;99.90
36002;DHT22;22070;50.922;5.430;2023-04-29T05:21:28;10.90;99.90
36002;DHT22;22070;50.922;5.430;2023-04-29T05:23:54;11.00;99.90
36002;DHT22;22070;50.922;5.430;2023-04-29T05:26:19;11.00;99.90
36002;DHT22;22070;50.922;5.430;2023-04-29T05:28:45;11.10;99.90
36002;DHT22;22070;50.922;5.430;2023-04-29T05:31:11;11.00;99.90
36002;DHT22;22070;50.922;5.430;2023-04-29T05:33:37;10.90;99.90
36002;DHT22;22070;50.922;5.430;2023-04-29T05:36:02;11.00;99.90
36002;DHT22;22070;50.922;5.430;2023-04-29T05:38:28;10.80;99.90
36002;DHT22;22070;50.922;5.430;2023-04-29T05:40:57;10.80;99.90
36002;DHT22;22070;50.922;5.430;2023-04-29T05:43:23;10.70;99.90
36002;DHT22;22070;50.922;5.430;2023-04-29T05:45:49;10.80;99.90
36002;DHT22;22070;50.922;5.430;2023-04-29T05:48:15;10.80;99.90
36002;DHT22;22070;50.922;5.430;2023-04-29T05:50:41;10.80;99.90
36002;DHT22;22070;50.922;5.430;2023-04-29T05:53:07;10.80;99.90
36002;DHT22;22070;50.922;5.430;2023-04-29T05:55:32;10.80;99.90
36002;DHT22;22070;50.922;5.430;2023-04-29T05:57:58;10.80;99.90
36002;DHT22;22070;50.922;5.430;2023-04-29T06:00:23;10.80;99.90
36002;DHT22;22070;50.922;5.430;2023-04-29T06:02:49;11.00;99.90
36002;DHT22;22070;50.922;5.430;2023-04-29T06:05:15;10.90;99.90
36002;DHT22;22070;50.922;5.430;2023-04-29T06:07:41;11.00;99.90
36002;DHT22;22070;50.922;5.430;2023-04-29T06:10:08;11.00;99.90
36002;DHT22;22070;50.922;5.430;2023-04-29T06:12:34;10.90;99.90
36002;DHT22;22070;50.922;5.430;2023-04-29T06:15:00;10.80;99.90
36002;DHT22;22070;50.922;5.430;2023-04-29T06:17:26;10.80;99.90
36002;DHT22;22070;50.922;5.430;2023-04-29T06:19:54;10.70;99.90
36002;DHT22;22070;50.922;5.430;2023-04-29T06:22:20;10.80;99.90
36002;DHT22;22070;50.922;5.430;2023-04-29T06:24:46;10.80;99.90
36002;DHT22;22070;50.922;5.430;2023-04-29T06:27:14;10.70;99.90
36002;DHT22;22070;50.922;5.430;2023-04-29T06:29:40;10.70;99.90
36002;DHT22;22070;50.922;5.430;2023-04-29T06:32:06;10.70;99.90
36002;DHT22;22070;50.922;5.430;2023-04-29T06:34:32;10.60;99.90
36002;DHT22;22070;50.922;5.430;2023-04-29T06:36:58;10.70;99.90
36002;DHT22;22070;50.922;5.430;2023-04-29T06:39:24;10.60;99.90
36002;DHT22;22070;50.922;5.430;2023-04-29T06:41:50;10.60;99.90
36002;DHT22;22070;50.922;5.430;2023-04-29T06:44:16;10.60;99.90
36002;DHT22;22070;50.922;5.430;2023-04-29T06:46:43;10.60;99.90
36002;DHT22;22070;50.922;5.430;2023-04-29T06:49:09;10.60;99.90
36002;DHT22;22070;50.922;5.430;2023-04-29T06:51:36;10.50;99.90
36002;DHT22;22070;50.922;5.430;2023-04-29T06:54:02;10.50;99.90
36002;DHT22;22070;50.922;5.430;2023-04-29T06:56:28;10.70;99.90
36002;DHT22;22070;50.922;5.430;2023-04-29T06:58:54;10.70;99.90
36002;DHT22;22070;50.922;5.430;2023-04-29T07:01:20;10.80;99.90
36002;DHT22;22070;50.922;5.430;2023-04-29T07:03:45;10.70;99.90
36002;DHT22;22070;50.922;5.430;2023-04-29T07:06:11;10.80;99.90
36002;DHT22;22070;50.922;5.430;2023-04-29T07:08:37;10.70;99.90
36002;DHT22;22070;50.922;5.430;2023-04-29T07:11:03;10.70;99.90
36002;DHT22;22070;50.922;5.430;2023-04-29T07:13:28;10.70;99.90
36002;DHT22;22070;50.922;5.430;2023-04-29T07:15:54;10.70;99.90
36002;DHT22;22070;50.922;5.430;2023-04-29T07:18:20;10.70;99.90
36002;DHT22;22070;50.922;5.430;2023-04-29T07:20:46;10.70;99.90
36002;DHT22;22070;50.922;5.430;2023-04-29T07:23:13;10.80;99.90
36002;DHT22;22070;50.922;5.430;2023-04-29T07:25:39;10.80;99.90
36002;DHT22;22070;50.922;5.430;2023-04-29T07:28:05;10.80;99.90
36002;DHT22;22070;50.922;5.430;2023-04-29T07:30:31;10.90;99.90
36002;DHT22;22070;50.922;5.430;2023-04-29T07:32:56;10.90;99.90
36002;DHT22;22070;50.922;5.430;2023-04-29T07:35:22;10.90;99.90
36002;DHT22;22070;50.922;5.430;2023-04-29T07:37:48;10.90;99.90
36002;DHT22;22070;50.922;5.430;2023-04-29T07:40:13;11.10;99.90
36002;DHT22;22070;50.922;5.430;2023-04-29T07:42:39;11.10;99.90
36002;DHT22;22070;50.922;5.430;2023-04-29T07:45:05;11.10;99.90
36002;DHT22;22070;50.922;5.430;2023-04-29T07:47:31;11.00;99.90
36002;DHT22;22070;50.922;5.430;2023-04-29T07:49:56;11.10;99.90
36002;DHT22;22070;50.922;5.430;2023-04-29T07:52:22;11.10;99.90
36002;DHT22;22070;50.922;5.430;2023-04-29T07:54:48;11.10;99.90
36002;DHT22;22070;50.922;5.430;2023-04-29T07:57:14;11.10;99.90
36002;DHT22;22070;50.922;5.430;2023-04-29T07:59:39;11.30;99.90
36002;DHT22;22070;50.922;5.430;2023-04-29T08:02:05;11.30;99.90
36002;DHT22;22070;50.922;5.430;2023-04-29T08:04:31;11.30;99.90
36002;DHT22;22070;50.922;5.430;2023-04-29T08:06:56;11.30;99.90
36002;DHT22;22070;50.922;5.430;2023-04-29T08:09:22;11.50;99.90
36002;DHT22;22070;50.922;5.430;2023-04-29T08:11:48;11.40;99.90
36002;DHT22;22070;50.922;5.430;2023-04-29T08:14:13;11.40;99.90
36002;DHT22;22070;50.922;5.430;2023-04-29T08:16:39;11.40;99.90
36002;DHT22;22070;50.922;5.430;2023-04-29T08:19:05;11.30;99.90
36002;DHT22;22070;50.922;5.430;2023-04-29T08:21:31;11.40;99.90
36002;DHT22;22070;50.922;5.430;2023-04-29T08:23:57;11.40;99.90
36002;DHT22;22070;50.922;5.430;2023-04-29T08:26:23;11.40;99.90
36002;DHT22;22070;50.922;5.430;2023-04-29T08:28:48;11.60;99.90
36002;DHT22;22070;50.922;5.430;2023-04-29T08:31:18;11.60;99.90
36002;DHT22;22070;50.922;5.430;2023-04-29T08:33:44;11.50;99.90
36002;DHT22;22070;50.922;5.430;2023-04-29T08:36:10;11.50;99.90
36002;DHT22;22070;50.922;5.430;2023-04-29T08:38:36;11.40;99.90
36002;DHT22;22070;50.922;5.430;2023-04-29T08:41:03;11.40;99.90
36002;DHT22;22070;50.922;5.430;2023-04-29T08:43:28;11.50;99.90
36002;DHT22;22070;50.922;5.430;2023-04-29T08:45:57;11.60;99.90
36002;DHT22;22070;50.922;5.430;2023-04-29T08:48:24;11.60;99.90
36002;DHT22;22070;50.922;5.430;2023-04-29T08:50:51;11.60;99.90
36002;DHT22;22070;50.922;5.430;2023-04-29T08:53:17;11.50;99.90
36002;DHT22;22070;50.922;5.430;2023-04-29T08:55:44;11.70;99.90
36002;DHT22;22070;50.922;5.430;2023-04-29T08:58:11;11.90;99.90
36002;DHT22;22070;50.922;5.430;2023-04-29T09:00:39;11.80;99.90
36002;DHT22;22070;50.922;5.430;2023-04-29T09:03:24;12.00;99.90
36002;DHT22;22070;50.922;5.430;2023-04-29T09:05:53;11.90;99.90
36002;DHT22;22070;50.922;5.430;2023-04-29T09:08:21;12.00;99.90
36002;DHT22;22070;50.922;5.430;2023-04-29T09:10:48;12.00;99.90
36002;DHT22;22070;50.922;5.430;2023-04-29T09:13:28;12.00;99.90
36002;DHT22;22070;50.922;5.430;2023-04-29T09:15:54;11.80;99.90
36002;DHT22;22070;50.922;5.430;2023-04-29T09:18:45;11.70;99.90
36002;DHT22;22070;50.922;5.430;2023-04-29T09:21:22;11.80;99.90
36002;DHT22;22070;50.922;5.430;2023-04-29T09:23:56;11.80;99.90
36002;DHT22;22070;50.922;5.430;2023-04-29T09:26:22;11.80;99.90
36002;DHT22;22070;50.922;5.430;2023-04-29T09:29:09;12.00;99.90
36002;DHT22;22070;50.922;5.430;2023-04-29T09:31:38;12.00;99.90
36002;DHT22;22070;50.922;5.430;2023-04-29T09:34:05;12.10;99.90
36002;DHT22;22070;50.922;5.430;2023-04-29T09:39:15;12.60;99.90
36002;DHT22;22070;50.922;5.430;2023-04-29T09:44:24;12.90;99.90
36002;DHT22;22070;50.922;5.430;2023-04-29T09:47:08;12.80;99.90
36002;DHT22;22070;50.922;5.430;2023-04-29T09:49:40;12.90;99.90
36002;DHT22;22070;50.922;5.430;2023-04-29T09:52:09;12.80;99.90
36002;DHT22;22070;50.922;5.430;2023-04-29T09:54:36;12.90;99.90
36002;DHT22;22070;50.922;5.430;2023-04-29T09:57:04;12.90;99.90
36002;DHT22;22070;50.922;5.430;2023-04-29T09:59:32;12.80;99.90
36002;DHT22;22070;50.922;5.430;2023-04-29T10:02:01;12.80;99.90
36002;DHT22;22070;50.922;5.430;2023-04-29T10:04:28;12.70;99.90
36002;DHT22;22070;50.922;5.430;2023-04-29T10:06:57;12.90;99.90
36002;DHT22;22070;50.922;5.430;2023-04-29T10:09:24;13.10;99.90
36002;DHT22;22070;50.922;5.430;2023-04-29T10:11:51;13.10;99.90
36002;DHT22;22070;50.922;5.430;2023-04-29T10:14:22;13.30;99.90
36002;DHT22;22070;50.922;5.430;2023-04-29T10:17:15;13.30;99.90
36002;DHT22;22070;50.922;5.430;2023-04-29T10:19:57;13.40;99.90
36002;DHT22;22070;50.922;5.430;2023-04-29T10:22:45;13.30;99.90
36002;DHT22;22070;50.922;5.430;2023-04-29T10:25:14;13.40;99.90
36002;DHT22;22070;50.922;5.430;2023-04-29T10:27:43;13.60;99.90
36002;DHT22;22070;50.922;5.430;2023-04-29T10:30:16;13.70;99.90
36002;DHT22;22070;50.922;5.430;2023-04-29T10:32:48;13.90;99.90
36002;DHT22;22070;50.922;5.430;2023-04-29T10:35:15;14.10;99.90
36002;DHT22;22070;50.922;5.430;2023-04-29T10:37:44;14.20;99.90
36002;DHT22;22070;50.922;5.430;2023-04-29T10:40:35;14.40;99.90
36002;DHT22;22070;50.922;5.430;2023-04-29T10:43:01;14.40;99.90
36002;DHT22;22070;50.922;5.430;2023-04-29T10:45:28;14.40;99.90
36002;DHT22;22070;50.922;5.430;2023-04-29T10:50:31;14.50;99.90
36002;DHT22;22070;50.922;5.430;2023-04-29T10:53:00;14.50;99.90
36002;DHT22;22070;50.922;5.430;2023-04-29T10:55:26;14.50;99.90
36002;DHT22;22070;50.922;5.430;2023-04-29T10:57:52;14.60;99.90
36002;DHT22;22070;50.922;5.430;2023-04-29T11:00:36;14.70;99.90
36002;DHT22;22070;50.922;5.430;2023-04-29T11:03:05;14.70;99.90
36002;DHT22;22070;50.922;5.430;2023-04-29T11:05:35;14.80;99.90
36002;DHT22;22070;50.922;5.430;2023-04-29T11:08:11;14.90;99.90
36002;DHT22;22070;50.922;5.430;2023-04-29T11:10:41;15.00;99.90
36002;DHT22;22070;50.922;5.430;2023-04-29T11:13:27;15.20;99.90
36002;DHT22;22070;50.922;5.430;2023-04-29T11:15:54;15.30;99.90
36002;DHT22;22070;50.922;5.430;2023-04-29T11:18:28;15.30;99.90
36002;DHT22;22070;50.922;5.430;2023-04-29T11:23:50;15.30;99.90
36002;DHT22;22070;50.922;5.430;2023-04-29T11:26:19;15.40;99.90
36002;DHT22;22070;50.922;5.430;2023-04-29T11:28:46;15.40;99.90
36002;DHT22;22070;50.922;5.430;2023-04-29T11:31:12;15.50;99.90
36002;DHT22;22070;50.922;5.430;2023-04-29T11:33:38;15.50;99.90
36002;DHT22;22070;50.922;5.430;2023-04-29T11:36:04;15.40;99.90
36002;DHT22;22070;50.922;5.430;2023-04-29T11:38:30;15.50;99.90
36002;DHT22;22070;50.922;5.430;2023-04-29T11:40:59;15.60;99.90
36002;DHT22;22070;50.922;5.430;2023-04-29T11:43:25;15.60;99.90
36002;DHT22;22070;50.922;5.430;2023-04-29T11:45:51;15.70;99.90
36002;DHT22;22070;50.922;5.430;2023-04-29T11:48:18;15.90;99.90
36002;DHT22;22070;50.922;5.430;2023-04-29T11:50:48;15.90;99.90
36002;DHT22;22070;50.922;5.430;2023-04-29T11:53:15;16.00;99.90
36002;DHT22;22070;50.922;5.430;2023-04-29T11:55:44;16.00;99.90
36002;DHT22;22070;50.922;5.430;2023-04-29T11:58:10;16.10;99.90
36002;DHT22;22070;50.922;5.430;2023-04-29T12:00:37;16.00;99.90
36002;DHT22;22070;50.922;5.430;2023-04-29T12:03:17;16.00;99.90
36002;DHT22;22070;50.922;5.430;2023-04-29T12:05:46;16.00;99.90
36002;DHT22;22070;50.922;5.430;2023-04-29T12:08:13;16.10;99.90
36002;DHT22;22070;50.922;5.430;2023-04-29T12:10:40;16.10;99.90
36002;DHT22;22070;50.922;5.430;2023-04-29T12:13:06;15.90;99.90
36002;DHT22;22070;50.922;5.430;2023-04-29T12:15:32;15.90;99.90
36002;DHT22;22070;50.922;5.430;2023-04-29T12:17:59;16.10;99.90
36002;DHT22;22070;50.922;5.430;2023-04-29T12:20:26;16.20;99.90
36002;DHT22;22070;50.922;5.430;2023-04-29T12:22:53;16.30;99.90
36002;DHT22;22070;50.922;5.430;2023-04-29T12:25:25;16.40;99.90
36002;DHT22;22070;50.922;5.430;2023-04-29T12:27:58;16.40;99.90
36002;DHT22;22070;50.922;5.430;2023-04-29T12:30:24;16.20;99.90
36002;DHT22;22070;50.922;5.430;2023-04-29T12:32:51;16.10;99.90
36002;DHT22;22070;50.922;5.430;2023-04-29T12:35:17;16.00;99.90
36002;DHT22;22070;50.922;5.430;2023-04-29T12:37:46;15.90;99.90
36002;DHT22;22070;50.922;5.430;2023-04-29T12:40:15;15.90;99.90
36002;DHT22;22070;50.922;5.430;2023-04-29T12:42:42;15.90;99.90
36002;DHT22;22070;50.922;5.430;2023-04-29T12:45:28;16.00;99.90
36002;DHT22;22070;50.922;5.430;2023-04-29T12:47:58;16.00;99.90
36002;DHT22;22070;50.922;5.430;2023-04-29T12:50:34;16.00;99.90
36002;DHT22;22070;50.922;5.430;2023-04-29T12:53:05;16.10;99.90
36002;DHT22;22070;50.922;5.430;2023-04-29T12:55:35;16.00;99.90
36002;DHT22;22070;50.922;5.430;2023-04-29T12:58:04;16.00;99.90
36002;DHT22;22070;50.922;5.430;2023-04-29T13:00:30;16.10;99.90
36002;DHT22;22070;50.922;5.430;2023-04-29T13:02:57;16.10;99.90
36002;DHT22;22070;50.922;5.430;2023-04-29T13:05:22;16.00;99.90
36002;DHT22;22070;50.922;5.430;2023-04-29T13:07:49;16.20;99.90
36002;DHT22;22070;50.922;5.430;2023-04-29T13:10:14;16.20;99.90
36002;DHT22;22070;50.922;5.430;2023-04-29T13:12:40;16.00;99.90
36002;DHT22;22070;50.922;5.430;2023-04-29T13:15:06;16.00;99.90
36002;DHT22;22070;50.922;5.430;2023-04-29T13:17:36;16.00;99.90
36002;DHT22;22070;50.922;5.430;2023-04-29T13:20:05;16.10;99.90
36002;DHT22;22070;50.922;5.430;2023-04-29T13:22:31;16.30;99.90
36002;DHT22;22070;50.922;5.430;2023-04-29T13:24:57;16.20;99.90
36002;DHT22;22070;50.922;5.430;2023-04-29T13:27:23;16.10;99.90
36002;DHT22;22070;50.922;5.430;2023-04-29T13:29:49;16.20;99.90
36002;DHT22;22070;50.922;5.430;2023-04-29T13:32:15;16.10;99.90
36002;DHT22;22070;50.922;5.430;2023-04-29T13:34:41;16.20;99.90
36002;DHT22;22070;50.922;5.430;2023-04-29T13:37:08;16.20;99.90
36002;DHT22;22070;50.922;5.430;2023-04-29T13:39:34;16.20;99.90
36002;DHT22;22070;50.922;5.430;2023-04-29T13:42:00;16.30;99.90
36002;DHT22;22070;50.922;5.430;2023-04-29T13:44:26;16.20;99.90
36002;DHT22;22070;50.922;5.430;2023-04-29T13:46:52;16.10;99.90
36002;DHT22;22070;50.922;5.430;2023-04-29T13:49:17;16.30;99.90
36002;DHT22;22070;50.922;5.430;2023-04-29T13:51:43;16.40;99.90
36002;DHT22;22070;50.922;5.430;2023-04-29T13:54:09;16.50;99.90
36002;DHT22;22070;50.922;5.430;2023-04-29T13:56:34;16.50;99.90
36002;DHT22;22070;50.922;5.430;2023-04-29T13:59:00;16.40;99.90
36002;DHT22;22070;50.922;5.430;2023-04-29T14:01:26;16.60;99.90
36002;DHT22;22070;50.922;5.430;2023-04-29T14:03:52;16.60;99.90
36002;DHT22;22070;50.922;5.430;2023-04-29T14:06:17;16.40;99.90
36002;DHT22;22070;50.922;5.430;2023-04-29T14:08:43;16.40;99.90
36002;DHT22;22070;50.922;5.430;2023-04-29T14:11:09;16.50;99.90
36002;DHT22;22070;50.922;5.430;2023-04-29T14:13:35;16.40;99.90
36002;DHT22;22070;50.922;5.430;2023-04-29T14:16:00;16.50;99.90
36002;DHT22;22070;50.922;5.430;2023-04-29T14:18:28;16.50;99.90
36002;DHT22;22070;50.922;5.430;2023-04-29T14:20:55;16.50;99.90
36002;DHT22;22070;50.922;5.430;2023-04-29T14:23:22;16.40;99.90
36002;DHT22;22070;50.922;5.430;2023-04-29T14:25:47;16.40;99.90
36002;DHT22;22070;50.922;5.430;2023-04-29T14:28:13;16.40;99.90
36002;DHT22;22070;50.922;5.430;2023-04-29T14:30:39;16.40;99.90
36002;DHT22;22070;50.922;5.430;2023-04-29T14:33:05;16.50;99.90
36002;DHT22;22070;50.922;5.430;2023-04-29T14:35:32;16.40;99.90
36002;DHT22;22070;50.922;5.430;2023-04-29T14:37:58;16.50;99.90
36002;DHT22;22070;50.922;5.430;2023-04-29T14:40:23;16.40;99.90
36002;DHT22;22070;50.922;5.430;2023-04-29T14:42:49;16.10;99.90
36002;DHT22;22070;50.922;5.430;2023-04-29T14:45:15;16.20;99.90
36002;DHT22;22070;50.922;5.430;2023-04-29T14:47:41;16.30;99.90
36002;DHT22;22070;50.922;5.430;2023-04-29T14:50:08;16.30;99.90
36002;DHT22;22070;50.922;5.430;2023-04-29T14:52:34;16.40;99.90
36002;DHT22;22070;50.922;5.430;2023-04-29T14:55:00;16.30;99.90
36002;DHT22;22070;50.922;5.430;2023-04-29T14:57:26;16.30;99.90
36002;DHT22;22070;50.922;5.430;2023-04-29T14:59:52;16.40;99.90
36002;DHT22;22070;50.922;5.430;2023-04-29T15:02:17;16.50;99.90
36002;DHT22;22070;50.922;5.430;2023-04-29T15:04:43;16.60;99.90
36002;DHT22;22070;50.922;5.430;2023-04-29T15:07:14;16.50;99.90
36002;DHT22;22070;50.922;5.430;2023-04-29T15:09:43;16.50;99.90
36002;DHT22;22070;50.922;5.430;2023-04-29T15:12:09;16.50;99.90
36002;DHT22;22070;50.922;5.430;2023-04-29T15:14:34;16.50;99.90
36002;DHT22;22070;50.922;5.430;2023-04-29T15:17:00;16.50;99.90
36002;DHT22;22070;50.922;5.430;2023-04-29T15:19:26;16.40;99.90
36002;DHT22;22070;50.922;5.430;2023-04-29T15:21:52;16.40;99.90
36002;DHT22;22070;50.922;5.430;2023-04-29T15:24:18;16.50;99.90
36002;DHT22;22070;50.922;5.430;2023-04-29T15:26:44;16.70;99.90
36002;DHT22;22070;50.922;5.430;2023-04-29T15:29:10;16.60;99.90
36002;DHT22;22070;50.922;5.430;2023-04-29T15:31:36;16.60;99.90
36002;DHT22;22070;50.922;5.430;2023-04-29T15:34:02;16.60;99.90
36002;DHT22;22070;50.922;5.430;2023-04-29T15:36:29;16.60;99.90
36002;DHT22;22070;50.922;5.430;2023-04-29T15:38:55;16.60;99.90
36002;DHT22;22070;50.922;5.430;2023-04-29T15:41:21;16.70;99.90
36002;DHT22;22070;50.922;5.430;2023-04-29T15:43:47;16.70;99.90
36002;DHT22;22070;50.922;5.430;2023-04-29T15:46:13;16.60;99.90
36002;DHT22;22070;50.922;5.430;2023-04-29T15:48:39;16.80;99.90